sensor_id;sensor_type;location;lat;lon;timestamp;pressure;altitude;pressure_sealevel;temperature;humidity
6024;BME280;3040;42.654;23.296;2023-02-18T00:01:11;94961.66;;;7.18;51.21
6024;BME280;3040;42.654;23.296;2023-02-18T00:03:38;94921.69;;;7.19;50.39
6024;BME280;3040;42.654;23.296;2023-02-18T00:06:11;94948.59;;;7.35;49.65
6024;BME280;3040;42.654;23.296;2023-02-18T00:08:38;94939.41;;;7.19;50.88
6024;BME280;3040;42.654;23.296;2023-02-18T00:11:06;94958.44;;;7.21;50.53
6024;BME280;3040;42.654;23.296;2023-02-18T00:13:34;94956.53;;;6.85;51.54
6024;BME280;3040;42.654;23.296;2023-02-18T00:16:01;94942.41;;;7.04;51.22
6024;BME280;3040;42.654;23.296;2023-02-18T00:18:29;94938.69;;;7.05;51.52
6024;BME280;3040;42.654;23.296;2023-02-18T00:20:56;94945.09;;;7.26;50.82
6024;BME280;3040;42.654;23.296;2023-02-18T00:23:23;94930.78;;;7.27;51.07
6024;BME280;3040;42.654;23.296;2023-02-18T00:25:58;94914.94;;;6.50;52.30
6024;BME280;3040;42.654;23.296;2023-02-18T00:28:26;94902.59;;;6.59;52.05
6024;BME280;3040;42.654;23.296;2023-02-18T00:30:53;94899.53;;;6.93;51.59
6024;BME280;3040;42.654;23.296;2023-02-18T00:33:20;94915.44;;;7.15;50.61
6024;BME280;3040;42.654;23.296;2023-02-18T00:35:48;94915.31;;;7.20;51.02
6024;BME280;3040;42.654;23.296;2023-02-18T00:38:15;94893.50;;;7.15;50.93
6024;BME280;3040;42.654;23.296;2023-02-18T00:40:42;94903.28;;;6.65;52.47
6024;BME280;3040;42.654;23.296;2023-02-18T00:43:09;94812.25;;;6.07;52.72
6024;BME280;3040;42.654;23.296;2023-02-18T00:45:38;94906.63;;;6.43;53.49
6024;BME280;3040;42.654;23.296;2023-02-18T00:48:05;94909.97;;;6.48;53.44
6024;BME280;3040;42.654;23.296;2023-02-18T00:50:32;94908.47;;;6.29;54.06
6024;BME280;3040;42.654;23.296;2023-02-18T00:52:58;94922.50;;;6.57;53.70
6024;BME280;3040;42.654;23.296;2023-02-18T00:55:25;94915.38;;;5.97;55.62
6024;BME280;3040;42.654;23.296;2023-02-18T00:57:52;94904.97;;;6.20;54.99
6024;BME280;3040;42.654;23.296;2023-02-18T01:00:19;94896.03;;;5.69;55.76
6024;BME280;3040;42.654;23.296;2023-02-18T01:02:47;94909.66;;;5.77;55.71
6024;BME280;3040;42.654;23.296;2023-02-18T01:05:18;94890.34;;;5.62;55.86
6024;BME280;3040;42.654;23.296;2023-02-18T01:07:45;94911.66;;;5.98;55.38
6024;BME280;3040;42.654;23.296;2023-02-18T01:10:12;94903.69;;;6.31;54.29
6024;BME280;3040;42.654;23.296;2023-02-18T01:12:39;94892.91;;;6.54;53.65
6024;BME280;3040;42.654;23.296;2023-02-18T01:15:07;94890.75;;;6.70;52.45
6024;BME280;3040;42.654;23.296;2023-02-18T01:17:34;94895.06;;;6.66;52.86
6024;BME280;3040;42.654;23.296;2023-02-18T01:20:02;94887.63;;;6.68;53.31
6024;BME280;3040;42.654;23.296;2023-02-18T01:22:29;94896.13;;;6.79;53.07
6024;BME280;3040;42.654;23.296;2023-02-18T01:24:56;94892.47;;;6.88;52.45
6024;BME280;3040;42.654;23.296;2023-02-18T01:27:23;94892.28;;;6.85;52.33
6024;BME280;3040;42.654;23.296;2023-02-18T01:29:50;94899.00;;;6.41;52.93
6024;BME280;3040;42.654;23.296;2023-02-18T01:32:17;94897.63;;;6.44;53.60
6024;BME280;3040;42.654;23.296;2023-02-18T01:34:44;94900.75;;;6.60;53.44
6024;BME280;3040;42.654;23.296;2023-02-18T01:37:13;94885.31;;;6.26;54.07
6024;BME280;3040;42.654;23.296;2023-02-18T01:39:40;94877.25;;;6.03;53.73
6024;BME280;3040;42.654;23.296;2023-02-18T01:42:17;94892.44;;;6.25;53.80
6024;BME280;3040;42.654;23.296;2023-02-18T01:44:45;94896.13;;;5.13;57.47
6024;BME280;3040;42.654;23.296;2023-02-18T01:47:12;94896.38;;;5.49;57.19
6024;BME280;3040;42.654;23.296;2023-02-18T01:49:39;94906.47;;;5.10;58.89
6024;BME280;3040;42.654;23.296;2023-02-18T01:52:10;94882.19;;;4.94;59.45
6024;BME280;3040;42.654;23.296;2023-02-18T01:54:43;94900.38;;;4.53;60.34
6024;BME280;3040;42.654;23.296;2023-02-18T01:57:13;94769.06;;;4.04;59.84
6024;BME280;3040;42.654;23.296;2023-02-18T01:59:43;94743.47;;;3.91;59.27
6024;BME280;3040;42.654;23.296;2023-02-18T02:02:13;94919.56;;;4.96;59.18
6024;BME280;3040;42.654;23.296;2023-02-18T02:04:41;94915.09;;;5.15;58.69
6024;BME280;3040;42.654;23.296;2023-02-18T02:07:08;94920.59;;;5.00;58.75
6024;BME280;3040;42.654;23.296;2023-02-18T02:09:36;94920.38;;;5.15;58.10
6024;BME280;3040;42.654;23.296;2023-02-18T02:12:19;94915.25;;;5.05;58.03
6024;BME280;3040;42.654;23.296;2023-02-18T02:15:02;94904.25;;;5.36;57.47
6024;BME280;3040;42.654;23.296;2023-02-18T02:17:37;94908.78;;;5.49;56.45
6024;BME280;3040;42.654;23.296;2023-02-18T02:20:43;94905.31;;;5.67;55.83
6024;BME280;3040;42.654;23.296;2023-02-18T02:23:46;94902.69;;;5.99;54.35
6024;BME280;3040;42.654;23.296;2023-02-18T02:32:35;94795.66;;;4.82;57.30
6024;BME280;3040;42.654;23.296;2023-02-18T02:35:08;94883.34;;;5.85;55.78
6024;BME280;3040;42.654;23.296;2023-02-18T02:37:40;94856.69;;;5.87;54.60
6024;BME280;3040;42.654;23.296;2023-02-18T02:40:19;94900.94;;;6.22;53.92
6024;BME280;3040;42.654;23.296;2023-02-18T02:42:57;94881.78;;;6.30;53.99
6024;BME280;3040;42.654;23.296;2023-02-18T02:45:35;94888.72;;;5.66;54.49
6024;BME280;3040;42.654;23.296;2023-02-18T02:48:09;94872.16;;;5.61;56.00
6024;BME280;3040;42.654;23.296;2023-02-18T02:50:45;94874.28;;;5.78;54.93
6024;BME280;3040;42.654;23.296;2023-02-18T02:53:20;94871.38;;;5.47;55.91
6024;BME280;3040;42.654;23.296;2023-02-18T02:55:49;94879.56;;;5.78;55.82
6024;BME280;3040;42.654;23.296;2023-02-18T02:58:18;94876.53;;;5.84;55.39
6024;BME280;3040;42.654;23.296;2023-02-18T03:01:02;94877.44;;;5.93;54.79
6024;BME280;3040;42.654;23.296;2023-02-18T03:03:46;94853.41;;;5.95;53.81
6024;BME280;3040;42.654;23.296;2023-02-18T03:06:42;94893.00;;;5.95;54.71
6024;BME280;3040;42.654;23.296;2023-02-18T03:09:16;94870.81;;;5.96;54.36
6024;BME280;3040;42.654;23.296;2023-02-18T03:11:52;94902.50;;;5.96;54.98
6024;BME280;3040;42.654;23.296;2023-02-18T03:14:27;94908.47;;;5.69;55.65
6024;BME280;3040;42.654;23.296;2023-02-18T03:16:58;94901.00;;;5.57;55.67
6024;BME280;3040;42.654;23.296;2023-02-18T03:19:31;94900.25;;;5.70;56.10
6024;BME280;3040;42.654;23.296;2023-02-18T03:22:05;94905.53;;;5.70;55.18
6024;BME280;3040;42.654;23.296;2023-02-18T03:24:36;94882.56;;;5.39;56.08
6024;BME280;3040;42.654;23.296;2023-02-18T03:27:08;94846.75;;;5.19;56.58
6024;BME280;3040;42.654;23.296;2023-02-18T03:29:37;94906.06;;;5.86;55.23
6024;BME280;3040;42.654;23.296;2023-02-18T03:32:07;94913.66;;;6.06;54.61
6024;BME280;3040;42.654;23.296;2023-02-18T03:34:38;94910.03;;;6.16;54.65
6024;BME280;3040;42.654;23.296;2023-02-18T03:37:09;94898.59;;;6.07;54.33
6024;BME280;3040;42.654;23.296;2023-02-18T03:39:40;94885.56;;;5.32;55.99
6024;BME280;3040;42.654;23.296;2023-02-18T03:42:07;94926.97;;;5.31;56.03
6024;BME280;3040;42.654;23.296;2023-02-18T03:44:34;94943.88;;;4.93;57.59
6024;BME280;3040;42.654;23.296;2023-02-18T03:47:02;94942.03;;;5.12;58.05
6024;BME280;3040;42.654;23.296;2023-02-18T03:49:29;94949.53;;;5.24;57.32
6024;BME280;3040;42.654;23.296;2023-02-18T03:51:56;94952.00;;;5.34;57.51
6024;BME280;3040;42.654;23.296;2023-02-18T03:54:24;94943.03;;;5.16;57.75
6024;BME280;3040;42.654;23.296;2023-02-18T03:56:51;94945.88;;;5.01;58.53
6024;BME280;3040;42.654;23.296;2023-02-18T03:59:18;94929.84;;;4.98;57.77
6024;BME280;3040;42.654;23.296;2023-02-18T04:01:44;94936.03;;;5.25;57.92
6024;BME280;3040;42.654;23.296;2023-02-18T04:04:11;94939.44;;;5.45;57.24
6024;BME280;3040;42.654;23.296;2023-02-18T04:06:38;94921.44;;;5.33;57.27
6024;BME280;3040;42.654;23.296;2023-02-18T04:09:05;94925.41;;;5.30;56.84
6024;BME280;3040;42.654;23.296;2023-02-18T04:11:35;94913.69;;;5.55;57.00
6024;BME280;3040;42.654;23.296;2023-02-18T04:14:03;94913.22;;;5.67;56.06
6024;BME280;3040;42.654;23.296;2023-02-18T04:16:30;94788.72;;;5.05;55.60
6024;BME280;3040;42.654;23.296;2023-02-18T04:18:57;94915.00;;;5.90;55.27
6024;BME280;3040;42.654;23.296;2023-02-18T04:21:24;94921.19;;;5.81;55.97
6024;BME280;3040;42.654;23.296;2023-02-18T04:23:51;94910.09;;;5.97;55.80
6024;BME280;3040;42.654;23.296;2023-02-18T04:26:18;94913.03;;;5.63;56.70
6024;BME280;3040;42.654;23.296;2023-02-18T04:28:46;94889.69;;;5.06;57.54
6024;BME280;3040;42.654;23.296;2023-02-18T04:31:13;94909.09;;;4.91;58.09
6024;BME280;3040;42.654;23.296;2023-02-18T04:33:40;94886.88;;;5.16;58.04
6024;BME280;3040;42.654;23.296;2023-02-18T04:36:08;94899.13;;;5.25;57.41
6024;BME280;3040;42.654;23.296;2023-02-18T04:38:35;94867.81;;;5.38;57.23
6024;BME280;3040;42.654;23.296;2023-02-18T04:41:02;94886.56;;;5.68;56.26
6024;BME280;3040;42.654;23.296;2023-02-18T04:43:29;94798.81;;;5.17;55.83
6024;BME280;3040;42.654;23.296;2023-02-18T04:45:57;94903.66;;;5.39;57.11
6024;BME280;3040;42.654;23.296;2023-02-18T04:48:24;94902.00;;;5.43;56.86
6024;BME280;3040;42.654;23.296;2023-02-18T04:50:51;94917.38;;;5.03;58.90
6024;BME280;3040;42.654;23.296;2023-02-18T04:53:18;94915.09;;;5.15;58.18
6024;BME280;3040;42.654;23.296;2023-02-18T04:55:48;94908.69;;;4.84;58.18
6024;BME280;3040;42.654;23.296;2023-02-18T04:58:16;94887.69;;;4.36;60.38
6024;BME280;3040;42.654;23.296;2023-02-18T05:00:43;94906.31;;;4.64;60.79
6024;BME280;3040;42.654;23.296;2023-02-18T05:03:11;94907.69;;;4.80;59.24
6024;BME280;3040;42.654;23.296;2023-02-18T05:05:38;94919.91;;;4.71;60.14
6024;BME280;3040;42.654;23.296;2023-02-18T05:08:06;94932.16;;;4.62;60.09
6024;BME280;3040;42.654;23.296;2023-02-18T05:10:33;94951.09;;;4.82;59.94
6024;BME280;3040;42.654;23.296;2023-02-18T05:13:00;94923.63;;;4.88;59.08
6024;BME280;3040;42.654;23.296;2023-02-18T05:15:27;94947.34;;;4.88;59.90
6024;BME280;3040;42.654;23.296;2023-02-18T05:17:54;94936.13;;;4.35;60.89
6024;BME280;3040;42.654;23.296;2023-02-18T05:20:22;94920.28;;;4.17;62.46
6024;BME280;3040;42.654;23.296;2023-02-18T05:22:49;94927.25;;;4.31;62.56
6024;BME280;3040;42.654;23.296;2023-02-18T05:25:16;94902.81;;;4.26;62.05
6024;BME280;3040;42.654;23.296;2023-02-18T05:27:43;94834.72;;;4.19;60.46
6024;BME280;3040;42.654;23.296;2023-02-18T05:30:10;94918.88;;;5.09;59.56
6024;BME280;3040;42.654;23.296;2023-02-18T05:32:37;94909.59;;;5.30;59.41
6024;BME280;3040;42.654;23.296;2023-02-18T05:35:05;94906.44;;;5.47;58.63
6024;BME280;3040;42.654;23.296;2023-02-18T05:37:33;94761.00;;;3.77;61.26
6024;BME280;3040;42.654;23.296;2023-02-18T05:40:00;94869.06;;;4.89;60.58
6024;BME280;3040;42.654;23.296;2023-02-18T05:42:27;94905.53;;;5.01;59.63
6024;BME280;3040;42.654;23.296;2023-02-18T05:44:54;94878.63;;;4.85;60.40
6024;BME280;3040;42.654;23.296;2023-02-18T05:47:21;94906.25;;;5.25;59.73
6024;BME280;3040;42.654;23.296;2023-02-18T05:49:48;94922.56;;;5.08;59.85
6024;BME280;3040;42.654;23.296;2023-02-18T05:52:16;94911.41;;;5.16;60.21
6024;BME280;3040;42.654;23.296;2023-02-18T05:54:44;94915.38;;;5.32;59.82
6024;BME280;3040;42.654;23.296;2023-02-18T05:57:13;94925.81;;;5.56;59.21
6024;BME280;3040;42.654;23.296;2023-02-18T05:59:40;94942.31;;;5.81;58.76
6024;BME280;3040;42.654;23.296;2023-02-18T06:02:07;94931.22;;;5.97;58.53
6024;BME280;3040;42.654;23.296;2023-02-18T06:04:34;94932.63;;;6.08;57.44
6024;BME280;3040;42.654;23.296;2023-02-18T06:07:00;94951.44;;;6.21;57.15
6024;BME280;3040;42.654;23.296;2023-02-18T06:09:27;94949.94;;;6.01;57.32
6024;BME280;3040;42.654;23.296;2023-02-18T06:11:56;94951.16;;;5.39;59.67
6024;BME280;3040;42.654;23.296;2023-02-18T06:14:23;94936.31;;;4.44;61.66
6024;BME280;3040;42.654;23.296;2023-02-18T06:16:50;94898.47;;;4.35;62.71
6024;BME280;3040;42.654;23.296;2023-02-18T06:19:17;94943.19;;;5.06;61.87
6024;BME280;3040;42.654;23.296;2023-02-18T06:21:44;94939.53;;;5.40;60.26
6024;BME280;3040;42.654;23.296;2023-02-18T06:24:10;94905.97;;;4.89;61.10
6024;BME280;3040;42.654;23.296;2023-02-18T06:26:37;94929.97;;;5.25;60.09
6024;BME280;3040;42.654;23.296;2023-02-18T06:29:05;94938.63;;;5.63;59.54
6024;BME280;3040;42.654;23.296;2023-02-18T06:31:32;94940.72;;;5.98;59.45
6024;BME280;3040;42.654;23.296;2023-02-18T06:33:59;94926.50;;;6.27;58.70
6024;BME280;3040;42.654;23.296;2023-02-18T06:36:26;94927.56;;;6.53;58.35
6024;BME280;3040;42.654;23.296;2023-02-18T06:38:53;94917.31;;;6.38;57.53
6024;BME280;3040;42.654;23.296;2023-02-18T06:41:21;94915.34;;;6.30;58.63
6024;BME280;3040;42.654;23.296;2023-02-18T06:43:48;94915.41;;;6.52;57.29
6024;BME280;3040;42.654;23.296;2023-02-18T06:46:17;94926.38;;;6.59;56.77
6024;BME280;3040;42.654;23.296;2023-02-18T06:48:44;94895.84;;;6.67;57.46
6024;BME280;3040;42.654;23.296;2023-02-18T06:51:11;94921.63;;;7.11;55.82
6024;BME280;3040;42.654;23.296;2023-02-18T06:53:37;94919.03;;;7.19;54.90
6024;BME280;3040;42.654;23.296;2023-02-18T06:56:06;94926.25;;;7.41;55.65
6024;BME280;3040;42.654;23.296;2023-02-18T06:58:33;94785.63;;;6.67;56.04
6024;BME280;3040;42.654;23.296;2023-02-18T07:01:00;94915.41;;;7.51;53.37
6024;BME280;3040;42.654;23.296;2023-02-18T07:03:29;94916.13;;;7.43;55.18
6024;BME280;3040;42.654;23.296;2023-02-18T07:05:55;94922.69;;;7.68;55.18
6024;BME280;3040;42.654;23.296;2023-02-18T07:08:22;94939.31;;;7.24;55.34
6024;BME280;3040;42.654;23.296;2023-02-18T07:10:49;94904.56;;;7.39;55.24
6024;BME280;3040;42.654;23.296;2023-02-18T07:13:16;94937.31;;;6.93;55.81
6024;BME280;3040;42.654;23.296;2023-02-18T07:15:43;94923.13;;;7.25;54.20
6024;BME280;3040;42.654;23.296;2023-02-18T07:18:10;94914.38;;;7.03;54.72
6024;BME280;3040;42.654;23.296;2023-02-18T07:20:38;94792.50;;;6.54;54.68
6024;BME280;3040;42.654;23.296;2023-02-18T07:23:05;94902.72;;;7.40;53.98
6024;BME280;3040;42.654;23.296;2023-02-18T07:25:32;94902.16;;;7.73;53.76
6024;BME280;3040;42.654;23.296;2023-02-18T07:27:59;94906.81;;;7.99;54.32
6024;BME280;3040;42.654;23.296;2023-02-18T07:30:26;94903.53;;;8.24;53.19
6024;BME280;3040;42.654;23.296;2023-02-18T07:32:53;94898.38;;;8.58;53.05
6024;BME280;3040;42.654;23.296;2023-02-18T07:35:20;94914.91;;;8.64;52.57
6024;BME280;3040;42.654;23.296;2023-02-18T07:37:49;94929.31;;;8.80;52.47
6024;BME280;3040;42.654;23.296;2023-02-18T07:40:19;94925.56;;;8.81;51.89
6024;BME280;3040;42.654;23.296;2023-02-18T07:42:46;94937.31;;;9.06;50.88
6024;BME280;3040;42.654;23.296;2023-02-18T07:45:13;94942.50;;;9.20;50.78
6024;BME280;3040;42.654;23.296;2023-02-18T07:47:40;94961.72;;;9.43;49.35
6024;BME280;3040;42.654;23.296;2023-02-18T07:50:08;94957.34;;;9.47;48.62
6024;BME280;3040;42.654;23.296;2023-02-18T07:52:35;94956.28;;;9.39;48.14
6024;BME280;3040;42.654;23.296;2023-02-18T07:55:04;94932.66;;;9.03;46.65
6024;BME280;3040;42.654;23.296;2023-02-18T07:57:31;94955.59;;;9.16;47.55
6024;BME280;3040;42.654;23.296;2023-02-18T07:59:58;94942.31;;;9.16;47.83
6024;BME280;3040;42.654;23.296;2023-02-18T08:02:25;94945.66;;;9.39;47.44
6024;BME280;3040;42.654;23.296;2023-02-18T08:04:52;94937.38;;;9.75;46.36
6024;BME280;3040;42.654;23.296;2023-02-18T08:07:20;94925.78;;;9.71;45.60
6024;BME280;3040;42.654;23.296;2023-02-18T08:09:48;94936.72;;;9.78;45.80
6024;BME280;3040;42.654;23.296;2023-02-18T08:12:16;94935.00;;;9.91;45.67
6024;BME280;3040;42.654;23.296;2023-02-18T08:14:43;94941.41;;;9.98;45.04
6024;BME280;3040;42.654;23.296;2023-02-18T08:17:10;94945.75;;;10.29;44.11
6024;BME280;3040;42.654;23.296;2023-02-18T08:19:37;94939.88;;;10.44;43.65
6024;BME280;3040;42.654;23.296;2023-02-18T08:22:04;94936.41;;;10.60;43.89
6024;BME280;3040;42.654;23.296;2023-02-18T08:24:31;94901.84;;;10.81;42.26
6024;BME280;3040;42.654;23.296;2023-02-18T08:26:58;94905.09;;;11.16;41.93
6024;BME280;3040;42.654;23.296;2023-02-18T08:29:26;94918.91;;;10.80;41.76
6024;BME280;3040;42.654;23.296;2023-02-18T08:31:53;94898.72;;;10.79;42.19
6024;BME280;3040;42.654;23.296;2023-02-18T08:34:21;94901.75;;;10.69;42.82
6024;BME280;3040;42.654;23.296;2023-02-18T08:36:48;94916.22;;;10.89;43.58
6024;BME280;3040;42.654;23.296;2023-02-18T08:39:15;94894.88;;;10.97;42.04
6024;BME280;3040;42.654;23.296;2023-02-18T08:41:43;94914.09;;;11.03;41.79
6024;BME280;3040;42.654;23.296;2023-02-18T08:44:10;94903.59;;;11.27;41.42
6024;BME280;3040;42.654;23.296;2023-02-18T08:46:38;94897.56;;;11.18;40.69
6024;BME280;3040;42.654;23.296;2023-02-18T08:49:05;94898.72;;;11.29;40.85
6024;BME280;3040;42.654;23.296;2023-02-18T08:51:32;94908.22;;;11.39;39.44
6024;BME280;3040;42.654;23.296;2023-02-18T08:53:59;94921.41;;;11.56;40.31
6024;BME280;3040;42.654;23.296;2023-02-18T08:56:26;94915.66;;;11.66;40.47
6024;BME280;3040;42.654;23.296;2023-02-18T08:58:53;94912.03;;;11.71;39.69
6024;BME280;3040;42.654;23.296;2023-02-18T09:01:20;94837.09;;;11.19;39.75
6024;BME280;3040;42.654;23.296;2023-02-18T09:03:48;94935.34;;;11.95;39.39
6024;BME280;3040;42.654;23.296;2023-02-18T09:06:15;94928.16;;;12.07;40.08
6024;BME280;3040;42.654;23.296;2023-02-18T09:08:42;94927.53;;;12.10;40.09
6024;BME280;3040;42.654;23.296;2023-02-18T09:11:09;94912.34;;;11.28;40.87
6024;BME280;3040;42.654;23.296;2023-02-18T09:13:37;94814.44;;;10.71;41.50
6024;BME280;3040;42.654;23.296;2023-02-18T09:16:06;94935.50;;;11.36;39.98
6024;BME280;3040;42.654;23.296;2023-02-18T09:18:33;94922.38;;;11.31;40.71
6024;BME280;3040;42.654;23.296;2023-02-18T09:21:04;94905.31;;;10.82;40.09
6024;BME280;3040;42.654;23.296;2023-02-18T09:23:32;94911.00;;;11.01;41.26
6024;BME280;3040;42.654;23.296;2023-02-18T09:25:59;94926.66;;;11.44;40.50
6024;BME280;3040;42.654;23.296;2023-02-18T09:28:26;94912.72;;;12.01;38.76
6024;BME280;3040;42.654;23.296;2023-02-18T09:30:53;94905.38;;;12.55;39.32
6024;BME280;3040;42.654;23.296;2023-02-18T09:33:20;94890.97;;;13.32;37.70
6024;BME280;3040;42.654;23.296;2023-02-18T09:35:47;94778.66;;;13.01;37.07
6024;BME280;3040;42.654;23.296;2023-02-18T09:38:16;94874.72;;;13.93;36.25
6024;BME280;3040;42.654;23.296;2023-02-18T09:40:45;94880.19;;;14.40;34.50
6024;BME280;3040;42.654;23.296;2023-02-18T09:43:21;94886.63;;;14.86;33.67
6024;BME280;3040;42.654;23.296;2023-02-18T09:45:50;94880.09;;;15.38;34.30
6024;BME280;3040;42.654;23.296;2023-02-18T09:48:20;94901.53;;;15.73;32.65
6024;BME280;3040;42.654;23.296;2023-02-18T09:50:52;94866.69;;;16.15;32.01
6024;BME280;3040;42.654;23.296;2023-02-18T09:53:21;94877.72;;;16.55;31.93
6024;BME280;3040;42.654;23.296;2023-02-18T09:55:50;94891.56;;;17.03;30.07
6024;BME280;3040;42.654;23.296;2023-02-18T09:58:20;94892.97;;;17.49;29.22
6024;BME280;3040;42.654;23.296;2023-02-18T10:00:50;94888.25;;;17.69;29.12
6024;BME280;3040;42.654;23.296;2023-02-18T10:03:20;94781.50;;;16.84;28.61
6024;BME280;3040;42.654;23.296;2023-02-18T10:05:55;94874.91;;;17.50;28.64
6024;BME280;3040;42.654;23.296;2023-02-18T10:08:27;94848.72;;;17.43;28.79
6024;BME280;3040;42.654;23.296;2023-02-18T10:10:54;94875.66;;;17.77;28.61
6024;BME280;3040;42.654;23.296;2023-02-18T10:13:23;94874.34;;;17.97;28.44
6024;BME280;3040;42.654;23.296;2023-02-18T10:15:51;94852.72;;;17.86;28.02
6024;BME280;3040;42.654;23.296;2023-02-18T10:18:26;94839.41;;;17.67;28.60
6024;BME280;3040;42.654;23.296;2023-02-18T10:21:04;94880.78;;;18.22;28.03
6024;BME280;3040;42.654;23.296;2023-02-18T10:23:37;94870.41;;;18.61;27.47
6024;BME280;3040;42.654;23.296;2023-02-18T10:26:06;94875.16;;;18.79;27.04
6024;BME280;3040;42.654;23.296;2023-02-18T10:28:36;94863.75;;;18.99;27.35
6024;BME280;3040;42.654;23.296;2023-02-18T10:31:06;94798.97;;;18.85;26.85
6024;BME280;3040;42.654;23.296;2023-02-18T10:33:38;94859.91;;;19.62;26.26
6024;BME280;3040;42.654;23.296;2023-02-18T10:36:20;94861.94;;;19.94;25.33
6024;BME280;3040;42.654;23.296;2023-02-18T10:39:18;94861.25;;;20.21;24.80
6024;BME280;3040;42.654;23.296;2023-02-18T10:41:53;94842.66;;;19.91;25.52
6024;BME280;3040;42.654;23.296;2023-02-18T10:44:30;94827.19;;;19.74;25.77
6024;BME280;3040;42.654;23.296;2023-02-18T10:47:13;94842.72;;;20.20;24.99
6024;BME280;3040;42.654;23.296;2023-02-18T10:49:55;94836.13;;;20.03;25.96
6024;BME280;3040;42.654;23.296;2023-02-18T10:52:22;94822.72;;;20.70;24.34
6024;BME280;3040;42.654;23.296;2023-02-18T10:54:59;94786.38;;;20.86;23.70
6024;BME280;3040;42.654;23.296;2023-02-18T10:57:29;94817.19;;;21.48;23.36
6024;BME280;3040;42.654;23.296;2023-02-18T10:59:59;94816.41;;;21.51;23.16
6024;BME280;3040;42.654;23.296;2023-02-18T11:02:29;94797.25;;;20.43;23.95
6024;BME280;3040;42.654;23.296;2023-02-18T11:04:58;94805.84;;;19.41;25.33
6024;BME280;3040;42.654;23.296;2023-02-18T11:07:32;94802.91;;;18.98;25.83
6024;BME280;3040;42.654;23.296;2023-02-18T11:10:09;94802.09;;;18.91;26.68
6024;BME280;3040;42.654;23.296;2023-02-18T11:12:44;94718.09;;;18.23;27.11
6024;BME280;3040;42.654;23.296;2023-02-18T11:15:17;94789.22;;;19.35;26.49
6024;BME280;3040;42.654;23.296;2023-02-18T11:17:46;94787.66;;;19.31;25.94
6024;BME280;3040;42.654;23.296;2023-02-18T11:20:27;94787.78;;;18.80;26.25
6024;BME280;3040;42.654;23.296;2023-02-18T11:23:14;94785.56;;;18.45;27.27
6024;BME280;3040;42.654;23.296;2023-02-18T11:25:56;94767.16;;;18.50;26.87
6024;BME280;3040;42.654;23.296;2023-02-18T11:28:39;94770.84;;;18.32;27.25
6024;BME280;3040;42.654;23.296;2023-02-18T11:31:08;94767.28;;;18.20;26.95
6024;BME280;3040;42.654;23.296;2023-02-18T11:33:38;94746.50;;;18.17;27.12
6024;BME280;3040;42.654;23.296;2023-02-18T11:36:17;94740.97;;;18.03;27.26
6024;BME280;3040;42.654;23.296;2023-02-18T11:38:47;94738.25;;;17.96;26.75
6024;BME280;3040;42.654;23.296;2023-02-18T11:41:19;94741.53;;;18.19;26.73
6024;BME280;3040;42.654;23.296;2023-02-18T11:43:48;94701.03;;;18.56;26.06
6024;BME280;3040;42.654;23.296;2023-02-18T11:46:18;94715.47;;;18.92;26.05
6024;BME280;3040;42.654;23.296;2023-02-18T11:48:45;94708.97;;;19.07;25.57
6024;BME280;3040;42.654;23.296;2023-02-18T11:51:18;94720.66;;;19.43;25.84
6024;BME280;3040;42.654;23.296;2023-02-18T11:54:00;94689.16;;;20.04;24.32
6024;BME280;3040;42.654;23.296;2023-02-18T11:56:31;94715.31;;;20.96;23.44
6024;BME280;3040;42.654;23.296;2023-02-18T11:59:00;94694.38;;;21.14;23.64
6024;BME280;3040;42.654;23.296;2023-02-18T12:01:35;94701.19;;;21.50;23.35
6024;BME280;3040;42.654;23.296;2023-02-18T12:04:08;94665.13;;;20.81;23.29
6024;BME280;3040;42.654;23.296;2023-02-18T12:06:42;94687.63;;;20.07;24.83
6024;BME280;3040;42.654;23.296;2023-02-18T12:09:19;94686.84;;;20.49;24.44
6024;BME280;3040;42.654;23.296;2023-02-18T12:11:52;94672.16;;;20.60;24.52
6024;BME280;3040;42.654;23.296;2023-02-18T12:14:20;94691.84;;;20.22;25.57
6024;BME280;3040;42.654;23.296;2023-02-18T12:17:03;94665.97;;;19.54;25.36
6024;BME280;3040;42.654;23.296;2023-02-18T12:19:50;94672.13;;;19.47;26.45
6024;BME280;3040;42.654;23.296;2023-02-18T12:22:26;94654.16;;;18.75;25.86
6024;BME280;3040;42.654;23.296;2023-02-18T12:25:08;94665.03;;;18.96;26.54
6024;BME280;3040;42.654;23.296;2023-02-18T12:27:47;94672.84;;;19.23;26.05
6024;BME280;3040;42.654;23.296;2023-02-18T12:30:31;94646.47;;;18.81;25.44
6024;BME280;3040;42.654;23.296;2023-02-18T12:33:10;94673.00;;;18.68;26.77
6024;BME280;3040;42.654;23.296;2023-02-18T12:35:51;94664.47;;;18.55;26.00
6024;BME280;3040;42.654;23.296;2023-02-18T12:38:39;94652.81;;;19.34;25.50
6024;BME280;3040;42.654;23.296;2023-02-18T12:41:31;94641.94;;;19.02;25.52
6024;BME280;3040;42.654;23.296;2023-02-18T12:44:09;94645.69;;;18.73;25.78
6024;BME280;3040;42.654;23.296;2023-02-18T12:46:51;94636.22;;;18.32;27.46
6024;BME280;3040;42.654;23.296;2023-02-18T12:49:36;94640.59;;;17.99;28.09
6024;BME280;3040;42.654;23.296;2023-02-18T12:52:17;94651.19;;;17.74;28.07
6024;BME280;3040;42.654;23.296;2023-02-18T12:55:02;94643.31;;;18.03;26.89
6024;BME280;3040;42.654;23.296;2023-02-18T12:57:38;94630.63;;;18.03;27.04
6024;BME280;3040;42.654;23.296;2023-02-18T13:00:46;94638.03;;;18.13;27.53
6024;BME280;3040;42.654;23.296;2023-02-18T13:03:33;94624.31;;;18.40;27.11
6024;BME280;3040;42.654;23.296;2023-02-18T13:06:16;94632.38;;;18.36;26.06
6024;BME280;3040;42.654;23.296;2023-02-18T13:08:57;94638.09;;;19.03;25.82
6024;BME280;3040;42.654;23.296;2023-02-18T13:11:37;94631.22;;;19.24;25.90
6024;BME280;3040;42.654;23.296;2023-02-18T13:14:10;94640.38;;;18.91;25.00
6024;BME280;3040;42.654;23.296;2023-02-18T13:16:43;94641.88;;;18.16;26.06
6024;BME280;3040;42.654;23.296;2023-02-18T13:19:19;94639.19;;;18.16;26.64
6024;BME280;3040;42.654;23.296;2023-02-18T13:21:53;94620.16;;;18.49;25.93
6024;BME280;3040;42.654;23.296;2023-02-18T13:24:28;94615.22;;;17.97;26.65
6024;BME280;3040;42.654;23.296;2023-02-18T13:27:02;94635.97;;;18.58;26.46
6024;BME280;3040;42.654;23.296;2023-02-18T13:29:35;94633.22;;;18.44;25.75
6024;BME280;3040;42.654;23.296;2023-02-18T13:32:12;94634.06;;;18.58;26.47
6024;BME280;3040;42.654;23.296;2023-02-18T13:34:47;94643.38;;;18.10;26.54
6024;BME280;3040;42.654;23.296;2023-02-18T13:37:21;94610.72;;;18.15;26.68
6024;BME280;3040;42.654;23.296;2023-02-18T13:39:53;94632.09;;;17.90;27.06
6024;BME280;3040;42.654;23.296;2023-02-18T13:42:32;94629.84;;;17.99;27.02